Wetterdaten: aktuell Montag, 31.08.2026 22:40
Datum Zeit Temperatur Temp. +5 cm Temp. -10 cm Feuchte A. Luftdruck Regen Wind Richtung Richtung Zeit Sonne UV-I Solarstrahlg Taupunkt Windchill Windböen
31.08.2026 22:40 14,2 °C 12,2 °C 18,3 °C 85 % 1014,0 hPa 0,0 l/m² 2,8 km/h (1 Bft) W-NW 296 ° 0 min 0,0 UV-I 0 W/m² 11,7 °C 14,2 °C 9,7 km/h (2 Bft)
31.08.2026 21:40 14,8 °C 13,3 °C 18,3 °C 85 % 1013,1 hPa 0,0 l/m² 3,4 km/h (1 Bft) W 272 ° 0 min 0,0 UV-I 0 W/m² 12,3 °C 14,8 °C 4,8 km/h (1 Bft)
31.08.2026 20:40 16,3 °C 15,0 °C 18,3 °C 86 % 1013,0 hPa 2,6 l/m² 1,4 km/h (1 Bft) W-SW 240 ° 0 min 0,0 UV-I 0 W/m² 14,0 °C 16,3 °C 4,8 km/h (1 Bft)
31.08.2026 19:40 17,7 °C 15,0 °C 18,9 °C 77 % 1012,0 hPa 2,8 l/m² 4,1 km/h (1 Bft) N-NW 346 ° 16 min 0,0 UV-I 11 W/m² 13,6 °C 17,7 °C 9,7 km/h (2 Bft)
31.08.2026 18:40 23,4 °C 22,2 °C 18,9 °C 55 % 1011,5 hPa 0,0 l/m² 9,0 km/h (2 Bft) W 281 ° 20 min 0,0 UV-I 104 W/m² 13,8 °C 23,4 °C 17,7 km/h (3 Bft)
31.08.2026 17:40 23,1 °C 21,7 °C 18,9 °C 59 % 1011,2 hPa 0,0 l/m² 7,6 km/h (2 Bft) NW 310 ° 18 min 0,8 UV-I 355 W/m² 14,6 °C 23,1 °C 14,5 km/h (3 Bft)
31.08.2026 16:40 25,6 °C 30,6 °C 18,9 °C 49 % 1010,9 hPa 0,0 l/m² 18,3 km/h (3 Bft) W 281 ° 60 min 1,5 UV-I 536 W/m² 14,1 °C 25,6 °C 30,6 km/h (5 Bft)
31.08.2026 15:42 25,6 °C 31,7 °C 18,3 °C 53 % 1011,1 hPa 0,0 l/m² 15,2 km/h (3 Bft) W-SW 242 ° 30 min 2,2 UV-I 687 W/m² 15,3 °C 25,6 °C 27,4 km/h (5 Bft)
31.08.2026 14:42 24,9 °C 28,3 °C 18,3 °C 53 % 1011,6 hPa 0,0 l/m² 10,8 km/h (2 Bft) W-SW 243 ° 44 min 3,5 UV-I 780 W/m² 14,6 °C 24,9 °C 22,5 km/h (4 Bft)
31.08.2026 13:42 23,7 °C 28,9 °C 18,3 °C 60 % 1011,9 hPa 0,0 l/m² 15,1 km/h (3 Bft) W 279 ° 10 min 2,6 UV-I 925 W/m² 15,5 °C 23,7 °C 24,1 km/h (4 Bft)
31.08.2026 12:42 21,7 °C 23,9 °C 17,8 °C 69 % 1012,0 hPa 0,0 l/m² 9,5 km/h (2 Bft) W 279 ° 4 min 2,3 UV-I 371 W/m² 15,8 °C 21,7 °C 19,3 km/h (3 Bft)
31.08.2026 11:42 21,5 °C 22,8 °C 17,8 °C 70 % 1011,9 hPa 0,0 l/m² 10,9 km/h (2 Bft) W 265 ° 32 min 1,7 UV-I 204 W/m² 15,8 °C 21,5 °C 19,3 km/h (3 Bft)
31.08.2026 10:42 20,7 °C 18,9 °C 17,2 °C 77 % 1012,1 hPa 0,0 l/m² 7,5 km/h (2 Bft) W 265 ° 56 min 1,9 UV-I 271 W/m² 16,5 °C 20,7 °C 11,3 km/h (2 Bft)
31.08.2026 09:42 17,6 °C 16,7 °C 17,2 °C 88 % 1012,1 hPa 0,0 l/m² 3,2 km/h (1 Bft) W 262 ° 16 min 1,2 UV-I 162 W/m² 15,6 °C 17,6 °C 8,0 km/h (2 Bft)
31.08.2026 08:42 15,8 °C 15,0 °C 17,2 °C 87 % 1012,2 hPa 1,2 l/m² 5,1 km/h (1 Bft) W 266 ° 0 min 0,0 UV-I 51 W/m² 13,6 °C 15,8 °C 9,7 km/h (2 Bft)
31.08.2026 07:42 15,5 °C 14,4 °C 17,2 °C 85 % 1011,9 hPa 0,8 l/m² 6,3 km/h (2 Bft) W-SW 254 ° 0 min 0,0 UV-I 14 W/m² 13,0 °C 15,5 °C 8,0 km/h (2 Bft)
31.08.2026 06:42 15,3 °C 13,9 °C 17,2 °C 81 % 1011,3 hPa 0,0 l/m² 2,2 km/h (1 Bft) SW 221 ° 0 min 0,0 UV-I 11 W/m² 12,1 °C 15,3 °C 4,8 km/h (1 Bft)
31.08.2026 05:42 14,2 °C 12,2 °C 17,2 °C 83 % 1011,2 hPa 0,0 l/m² 0,0 km/h (0 Bft) S 185 ° 0 min 0,0 UV-I 0 W/m² 11,4 °C 14,2 °C 0,0 km/h (0 Bft)
31.08.2026 04:42 13,9 °C 11,7 °C 17,8 °C 84 % 1011,7 hPa 0,0 l/m² 0,0 km/h (0 Bft) S-SW 198 ° 0 min 0,0 UV-I 0 W/m² 11,2 °C 13,9 °C 0,0 km/h (0 Bft)
31.08.2026 03:42 14,2 °C 11,1 °C 17,8 °C 83 % 1011,8 hPa 0,0 l/m² 0,0 km/h (0 Bft) S-SW 198 ° 0 min 0,0 UV-I 0 W/m² 11,4 °C 14,2 °C 0,0 km/h (0 Bft)
31.08.2026 02:42 15,2 °C 11,7 °C 17,8 °C 81 % 1012,5 hPa 0,0 l/m² 1,9 km/h (1 Bft) S-SW 201 ° 0 min 0,0 UV-I 0 W/m² 12,0 °C 15,2 °C 4,8 km/h (1 Bft)
31.08.2026 01:42 15,3 °C 12,8 °C 18,3 °C 79 % 1013,0 hPa 0,0 l/m² 0,0 km/h (0 Bft) SW 226 ° 0 min 0,0 UV-I 0 W/m² 11,7 °C 15,3 °C 0,0 km/h (0 Bft)
31.08.2026 00:42 15,4 °C 12,2 °C 18,3 °C 79 % 1013,0 hPa 0,0 l/m² 0,0 km/h (0 Bft) SW 226 ° 0 min 0,0 UV-I 0 W/m² 11,8 °C 15,4 °C 0,0 km/h (0 Bft)
31.08.2026 00:00 15,9 °C 12,8 °C 18,3 °C 78 % 1013,2 hPa 0,0 l/m² 2,7 km/h (1 Bft) SW 227 ° 0 min 0,0 UV-I 0 W/m² 12,1 °C 15,9 °C 4,8 km/h (1 Bft)
_ Min-Zeit 04:14 04:08 11:16 16:42 16:50 - 20:38 - - - - - 04:14 04:14 20:38
Minimum _ 13,8 °C 10,6 °C 17,2 °C 49 % 1010,8 hPa - 0,0 km/h (0 Bft) - - - - - 11,1 °C 13,8 °C 0,0 km/h (0 Bft)
_ Max-Zeit 16:34 15:38 20:04 09:46 22:40 19:30 15:50 - - 16:23 13:32 14:06 10:20 16:34 16:36
Maximum _ 25,9 °C 32,8 °C 18,9 °C 88 % 1014,0 hPa 1,8 l/m² 23,3 km/h
W (4 Bft)
- - 3 min 4,6 UV-I 972 W/m² 16,7 °C 25,8 °C 41,8 km/h
W (6 Bft)
Durchschnitt _ 18,5 °C 18,0 °C 18,0 °C 74 % 1012,0 hPa #7,4 l/m² 6,4 km/h (2 Bft) W - #5:04 h 2,0 UV-I 286 W/m² 13,5 °C 18,5 °C 11,8 km/h (2 Bft)